Time;durP1;ratioP1;P1;durP2;ratioP2;P2;SDS_P1;SDS_P2;PMS_P1;PMS_P2;Temp;Humidity;BMP_temperature;BMP_pressure;BME280_temperature;BME280_humidity;BME280_pressure;Samples;Min_cycle;Max_cycle;Signal;HPM_P1;HPM_P2
2024/01/28 00:01:41;;;;;;;11.50;10.40;;;1.50;99.90;;;;;;4847751;29;20149;-79
2024/01/28 00:04:09;;;;;;;12.68;11.48;;;1.40;99.90;;;;;;4833790;29;20510;-79
2024/01/28 00:06:34;;;;;;;12.10;11.00;;;1.50;99.90;;;;;;4848593;29;20057;-79
2024/01/28 00:09:00;;;;;;;13.30;12.00;;;1.60;99.90;;;;;;4832014;29;20042;-80
2024/01/28 00:11:26;;;;;;;12.88;11.70;;;1.80;99.90;;;;;;4849282;29;20041;-79
2024/01/28 00:13:51;;;;;;;13.50;12.25;;;1.40;99.90;;;;;;4832117;29;20042;-79
2024/01/28 00:16:19;;;;;;;12.90;11.57;;;1.40;99.90;;;;;;4833457;29;20105;-79
2024/01/28 00:18:45;;;;;;;15.05;13.63;;;1.40;99.90;;;;;;4832858;29;20046;-79
2024/01/28 00:21:11;;;;;;;16.27;14.73;;;1.40;99.90;;;;;;4833029;29;20052;-79
2024/01/28 00:23:37;;;;;;;14.02;12.82;;;1.40;99.90;;;;;;4833641;29;20117;-79
2024/01/28 00:26:03;;;;;;;13.18;12.05;;;1.40;99.90;;;;;;4832384;29;20038;-80
2024/01/28 00:28:29;;;;;;;12.80;11.48;;;1.40;99.90;;;;;;4833509;29;20046;-79
2024/01/28 00:30:55;;;;;;;13.77;12.57;;;1.30;99.90;;;;;;4832139;29;20124;-80
2024/01/28 00:33:21;;;;;;;13.32;11.90;;;1.30;99.90;;;;;;4833639;29;20048;-79
2024/01/28 00:35:47;;;;;;;12.20;11.07;;;1.20;99.90;;;;;;4831986;29;20057;-79
2024/01/28 00:38:12;;;;;;;12.25;11.02;;;1.20;99.90;;;;;;4848459;29;20495;-79
2024/01/28 00:40:38;;;;;;;14.95;11.93;;;1.20;99.90;;;;;;4832981;29;20105;-79
2024/01/28 00:43:04;;;;;;;12.52;11.32;;;1.10;99.90;;;;;;4832124;29;20053;-79
2024/01/28 00:45:31;;;;;;;13.48;12.15;;;1.10;99.90;;;;;;4848957;29;20101;-79
2024/01/28 00:47:56;;;;;;;12.77;11.60;;;1.00;99.90;;;;;;4831960;29;20052;-80
2024/01/28 00:50:22;;;;;;;13.75;12.65;;;1.00;99.90;;;;;;4833236;29;20081;-80
2024/01/28 00:52:48;;;;;;;13.88;12.70;;;1.10;99.90;;;;;;4832162;29;20053;-79
2024/01/28 00:55:14;;;;;;;14.10;13.00;;;1.30;99.90;;;;;;4832828;29;20042;-79
2024/01/28 00:57:41;;;;;;;14.52;13.02;;;1.00;99.90;;;;;;4832046;29;20198;-79
2024/01/28 01:00:07;;;;;;;13.90;12.82;;;1.00;99.90;;;;;;4839336;29;20107;-80
2024/01/28 01:02:33;;;;;;;14.85;13.35;;;1.00;99.90;;;;;;4847492;29;20212;-79
2024/01/28 01:04:59;;;;;;;15.00;13.52;;;1.40;99.90;;;;;;4831956;29;20111;-79
2024/01/28 01:07:26;;;;;;;16.70;13.73;;;1.10;99.90;;;;;;4833301;29;20050;-79
2024/01/28 01:09:52;;;;;;;14.27;13.07;;;1.10;99.90;;;;;;4831900;29;20443;-80
2024/01/28 01:12:18;;;;;;;13.40;12.23;;;1.10;99.90;;;;;;4832641;29;20049;-80
2024/01/28 01:14:43;;;;;;;14.68;13.48;;;1.10;99.90;;;;;;4832660;29;20230;-80
2024/01/28 01:17:09;;;;;;;16.75;13.45;;;1.30;99.90;;;;;;4847600;29;20096;-79
2024/01/28 01:19:35;;;;;;;18.35;14.32;;;1.20;99.90;;;;;;4832754;29;20053;-79
2024/01/28 01:22:02;;;;;;;14.23;12.80;;;1.20;99.90;;;;;;4832346;29;20115;-79
2024/01/28 01:24:28;;;;;;;13.95;12.75;;;1.20;99.90;;;;;;4832721;29;20046;-79
2024/01/28 01:26:54;;;;;;;14.90;13.57;;;1.20;99.90;;;;;;4831644;29;20048;-79
2024/01/28 01:29:20;;;;;;;15.50;13.98;;;1.30;99.90;;;;;;4847765;29;20069;-79
2024/01/28 01:31:47;;;;;;;15.35;13.85;;;1.30;99.90;;;;;;4832138;29;20042;-79
2024/01/28 01:34:13;;;;;;;22.95;15.07;;;1.30;99.90;;;;;;4831755;29;20075;-80
2024/01/28 01:36:43;;;;;;;20.48;16.92;;;1.30;99.90;;;;;;4843053;29;20054;-80
2024/01/28 01:39:09;;;;;;;15.13;14.02;;;1.30;99.90;;;;;;4831413;29;20057;-80
2024/01/28 01:41:36;;;;;;;13.85;12.75;;;1.30;99.90;;;;;;4850202;29;20057;-79
2024/01/28 01:44:02;;;;;;;14.88;13.50;;;1.50;99.90;;;;;;4835065;29;20119;-79
2024/01/28 01:46:29;;;;;;;13.05;11.82;;;1.30;99.90;;;;;;4863993;29;20065;-79
2024/01/28 01:48:57;;;;;;;13.82;12.63;;;1.20;99.90;;;;;;4835677;29;20050;-79
2024/01/28 01:51:23;;;;;;;14.10;12.73;;;1.40;99.90;;;;;;4835835;29;20034;-79
2024/01/28 01:53:50;;;;;;;12.95;11.70;;;1.20;99.90;;;;;;4850595;29;20210;-79
2024/01/28 01:56:16;;;;;;;13.60;12.50;;;1.20;99.90;;;;;;4835264;29;20403;-79
2024/01/28 01:58:43;;;;;;;13.57;12.38;;;1.10;99.90;;;;;;4836125;29;20078;-79
2024/01/28 02:01:11;;;;;;;14.63;13.43;;;1.20;99.90;;;;;;4849050;29;20072;-80
2024/01/28 02:03:36;;;;;;;14.98;13.45;;;1.20;99.90;;;;;;4850753;29;20503;-79
2024/01/28 02:06:03;;;;;;;14.02;12.80;;;1.10;99.90;;;;;;4835133;29;20038;-79
2024/01/28 02:08:29;;;;;;;15.13;13.93;;;1.20;99.90;;;;;;4834658;29;20058;-79
2024/01/28 02:10:55;;;;;;;15.27;14.00;;;1.20;99.90;;;;;;4835612;29;20058;-79
2024/01/28 02:13:21;;;;;;;14.25;12.95;;;1.20;99.90;;;;;;4834876;29;20038;-80
2024/01/28 02:15:46;;;;;;;14.68;13.18;;;1.10;99.90;;;;;;4851113;29;20156;-79
2024/01/28 02:18:12;;;;;;;15.23;13.55;;;1.30;99.90;;;;;;4849389;29;20057;-79
2024/01/28 02:20:37;;;;;;;15.40;13.73;;;1.10;99.90;;;;;;4835414;29;20042;-79
2024/01/28 02:23:04;;;;;;;15.50;13.13;;;1.20;99.90;;;;;;4850589;29;20056;-79
2024/01/28 02:25:30;;;;;;;14.07;12.88;;;1.10;99.90;;;;;;4850539;29;20077;-79
2024/01/28 02:27:56;;;;;;;15.75;14.30;;;1.20;99.90;;;;;;4835119;29;20054;-79
2024/01/28 02:30:21;;;;;;;15.07;13.35;;;1.20;99.90;;;;;;4834171;29;20042;-79
2024/01/28 02:32:51;;;;;;;16.45;14.80;;;1.20;99.90;;;;;;4835594;29;20053;-79
2024/01/28 02:35:17;;;;;;;14.85;13.35;;;1.10;99.90;;;;;;4834741;29;20094;-79
2024/01/28 02:37:44;;;;;;;16.10;14.45;;;1.10;99.90;;;;;;4835310;29;20057;-79
2024/01/28 02:40:10;;;;;;;15.68;14.02;;;1.10;99.90;;;;;;4834376;29;20083;-79
2024/01/28 02:42:36;;;;;;;14.93;13.60;;;1.10;99.90;;;;;;4835212;29;20106;-79
2024/01/28 02:45:02;;;;;;;15.55;14.15;;;1.10;99.90;;;;;;4835214;29;20382;-79
2024/01/28 02:47:27;;;;;;;14.20;12.93;;;1.10;99.90;;;;;;4849151;29;20553;-79
2024/01/28 02:49:53;;;;;;;14.75;13.60;;;1.20;99.90;;;;;;4835455;29;20150;-79
2024/01/28 02:52:19;;;;;;;14.48;13.40;;;1.20;99.90;;;;;;4833091;29;20060;-79
2024/01/28 02:54:44;;;;;;;15.00;13.40;;;2.40;99.90;;;;;;4835737;29;20042;-79
2024/01/28 02:57:10;;;;;;;15.25;13.68;;;1.20;99.90;;;;;;4834643;29;20056;-79
2024/01/28 02:59:36;;;;;;;14.18;12.90;;;1.30;99.90;;;;;;4850189;29;20042;-79
2024/01/28 03:02:02;;;;;;;14.30;13.25;;;1.30;99.90;;;;;;4834492;29;20450;-79
2024/01/28 03:04:27;;;;;;;15.07;13.68;;;1.30;99.90;;;;;;4834303;29;20194;-79
2024/01/28 03:06:53;;;;;;;14.30;13.13;;;1.30;99.90;;;;;;4834973;29;20068;-79
2024/01/28 03:09:19;;;;;;;13.93;12.65;;;1.20;99.90;;;;;;4833907;29;20126;-79
2024/01/28 03:11:45;;;;;;;13.07;11.85;;;1.20;99.90;;;;;;4850410;29;20046;-79
2024/01/28 03:14:10;;;;;;;17.42;13.50;;;1.70;99.90;;;;;;4834091;29;20041;-78
2024/01/28 03:16:36;;;;;;;15.05;13.70;;;1.20;99.90;;;;;;4834305;29;20053;-79
2024/01/28 03:19:02;;;;;;;14.95;13.48;;;1.20;99.90;;;;;;4834110;29;20258;-79
2024/01/28 03:21:28;;;;;;;14.05;12.68;;;1.30;99.90;;;;;;4833670;29;20054;-79
2024/01/28 03:23:54;;;;;;;13.18;12.00;;;1.70;99.90;;;;;;4850009;29;20049;-79
2024/01/28 03:26:20;;;;;;;14.25;12.90;;;1.40;99.90;;;;;;4833928;29;20049;-79
2024/01/28 03:28:46;;;;;;;13.98;12.65;;;1.30;99.90;;;;;;4835112;29;20049;-79
2024/01/28 03:31:11;;;;;;;12.05;10.98;;;1.40;99.90;;;;;;4833486;29;20050;-79
2024/01/28 03:33:37;;;;;;;12.80;11.50;;;1.40;99.90;;;;;;4834547;29;20064;-79
2024/01/28 03:36:03;;;;;;;13.77;12.15;;;1.40;99.90;;;;;;4834349;29;20050;-79
2024/01/28 03:38:28;;;;;;;13.77;12.32;;;1.40;99.90;;;;;;4834405;29;20034;-80
2024/01/28 03:40:54;;;;;;;19.58;11.90;;;2.70;99.90;;;;;;4834003;29;20100;-80
2024/01/28 03:43:20;;;;;;;12.40;11.27;;;1.40;99.90;;;;;;4848538;29;20042;-80
2024/01/28 03:45:45;;;;;;;13.63;12.15;;;1.40;99.90;;;;;;4834503;29;20042;-80
2024/01/28 03:48:11;;;;;;;16.50;12.25;;;1.40;99.90;;;;;;4833618;29;20054;-79
2024/01/28 03:50:37;;;;;;;12.68;11.57;;;1.70;99.90;;;;;;4834277;29;20088;-79
2024/01/28 03:53:02;;;;;;;12.25;11.05;;;1.30;99.90;;;;;;4841714;29;20133;-80
2024/01/28 03:55:28;;;;;;;12.30;11.02;;;1.30;99.90;;;;;;4848963;29;20178;-79
2024/01/28 03:57:54;;;;;;;12.32;11.23;;;1.30;99.90;;;;;;4849540;29;20062;-79
2024/01/28 04:00:22;;;;;;;12.23;11.13;;;1.30;99.90;;;;;;4833086;29;20053;-79
2024/01/28 04:02:47;;;;;;;12.95;11.02;;;1.30;99.90;;;;;;4834403;29;20057;-79
2024/01/28 04:05:14;;;;;;;12.43;11.15;;;1.30;99.90;;;;;;4833082;29;20130;-79
2024/01/28 04:07:39;;;;;;;12.10;11.02;;;1.30;99.90;;;;;;4834614;29;20109;-79
2024/01/28 04:10:05;;;;;;;11.48;10.48;;;1.30;99.90;;;;;;4833484;29;20057;-79
2024/01/28 04:12:31;;;;;;;11.43;10.55;;;1.30;99.90;;;;;;4833868;29;20057;-79
2024/01/28 04:14:56;;;;;;;12.40;11.30;;;1.30;99.90;;;;;;4848706;29;20045;-79
2024/01/28 04:17:22;;;;;;;11.25;10.25;;;1.30;99.90;;;;;;4833682;29;20049;-79
2024/01/28 04:19:48;;;;;;;11.25;10.23;;;1.30;99.90;;;;;;4834566;29;20092;-79
2024/01/28 04:22:13;;;;;;;12.65;10.00;;;1.20;99.90;;;;;;4832826;29;20042;-79
2024/01/28 04:24:39;;;;;;;11.07;10.07;;;1.20;99.90;;;;;;4834136;29;20101;-79
2024/01/28 04:27:05;;;;;;;11.73;10.60;;;1.20;99.90;;;;;;4833294;29;20046;-79
2024/01/28 04:29:30;;;;;;;12.02;10.93;;;1.10;99.90;;;;;;4848643;29;20110;-79
2024/01/28 04:31:56;;;;;;;11.40;10.60;;;1.10;99.90;;;;;;4848623;29;20088;-79
2024/01/28 04:34:23;;;;;;;11.73;10.27;;;1.00;99.90;;;;;;4848246;29;20038;-79
2024/01/28 04:36:48;;;;;;;11.98;10.82;;;1.00;99.90;;;;;;4849134;29;20046;-79
2024/01/28 04:39:15;;;;;;;11.13;10.27;;;1.00;99.90;;;;;;4832753;29;20058;-79
2024/01/28 04:41:41;;;;;;;12.48;11.43;;;1.00;99.90;;;;;;4849148;29;20199;-79
2024/01/28 04:44:07;;;;;;;11.95;11.13;;;1.00;99.90;;;;;;4832495;29;20439;-79
2024/01/28 04:46:33;;;;;;;12.48;10.80;;;0.90;99.90;;;;;;4833391;29;20046;-79
2024/01/28 04:49:00;;;;;;;13.57;12.15;;;0.90;99.90;;;;;;4832726;29;20049;-79
2024/01/28 04:51:29;;;;;;;12.63;11.75;;;0.80;99.90;;;;;;4847745;29;20407;-79
2024/01/28 04:53:55;;;;;;;12.38;11.55;;;0.80;99.90;;;;;;4831843;29;20050;-79
2024/01/28 04:56:20;;;;;;;12.88;11.65;;;0.80;99.90;;;;;;4830668;29;20057;-79
2024/01/28 04:58:47;;;;;;;14.52;11.85;;;0.80;99.90;;;;;;4847492;29;20073;-79
2024/01/28 05:01:13;;;;;;;13.30;12.15;;;0.90;99.90;;;;;;4830934;29;20046;-78
2024/01/28 05:03:39;;;;;;;13.23;12.13;;;0.80;99.90;;;;;;4833556;29;20068;-79
2024/01/28 05:06:04;;;;;;;14.27;13.25;;;0.80;99.90;;;;;;4847987;29;20046;-79
2024/01/28 05:08:30;;;;;;;13.63;12.63;;;0.80;99.90;;;;;;4832979;29;20068;-79
2024/01/28 05:10:57;;;;;;;14.00;12.73;;;0.80;99.90;;;;;;4833274;29;20050;-79
2024/01/28 05:13:23;;;;;;;13.90;12.52;;;0.80;99.90;;;;;;4836804;29;20057;-79
2024/01/28 05:15:50;;;;;;;15.57;12.93;;;0.80;99.90;;;;;;4833299;29;20461;-78
2024/01/28 05:18:16;;;;;;;14.73;13.32;;;0.70;99.90;;;;;;4847520;29;20083;-78
2024/01/28 05:20:42;;;;;;;14.35;13.05;;;0.80;99.90;;;;;;4832876;29;20053;-78
2024/01/28 05:23:08;;;;;;;14.30;13.20;;;0.70;99.90;;;;;;4832853;29;20058;-79
2024/01/28 05:25:34;;;;;;;13.85;12.82;;;0.80;99.90;;;;;;4847476;29;20038;-79
2024/01/28 05:28:00;;;;;;;13.20;12.15;;;0.80;99.90;;;;;;4848156;29;20050;-78
2024/01/28 05:30:25;;;;;;;14.02;12.65;;;0.80;99.90;;;;;;4831168;29;20071;-78
2024/01/28 05:32:51;;;;;;;13.43;12.50;;;1.00;99.90;;;;;;4848679;29;20081;-78
2024/01/28 05:35:17;;;;;;;14.00;12.60;;;0.90;99.90;;;;;;4832314;29;20444;-78
2024/01/28 05:37:42;;;;;;;13.32;12.27;;;0.70;99.90;;;;;;4832950;29;20050;-78
2024/01/28 05:40:09;;;;;;;13.07;11.82;;;0.70;99.90;;;;;;4832025;29;20034;-78
2024/01/28 05:42:34;;;;;;;13.63;12.55;;;0.70;99.90;;;;;;4847232;29;20118;-79
2024/01/28 05:45:00;;;;;;;13.45;12.25;;;0.90;99.90;;;;;;4847769;29;20495;-78
2024/01/28 05:47:26;;;;;;;17.75;14.73;;;0.60;99.90;;;;;;4832526;29;20046;-78
2024/01/28 05:49:51;;;;;;;14.88;13.73;;;0.60;99.90;;;;;;4833533;29;20046;-78
2024/01/28 05:52:17;;;;;;;13.65;12.35;;;0.60;99.90;;;;;;4846861;29;20049;-78
2024/01/28 05:54:43;;;;;;;14.15;12.77;;;0.60;99.90;;;;;;4848318;29;20080;-78
2024/01/28 05:57:09;;;;;;;13.55;12.20;;;1.00;99.90;;;;;;4847452;29;20558;-78
2024/01/28 05:59:36;;;;;;;13.27;12.18;;;0.60;99.90;;;;;;4847888;29;20519;-79
2024/01/28 06:02:02;;;;;;;12.95;11.98;;;0.60;99.90;;;;;;4832112;29;20462;-79
2024/01/28 06:04:28;;;;;;;13.70;12.32;;;0.60;99.90;;;;;;4831966;29;20038;-79
2024/01/28 06:06:53;;;;;;;13.27;11.93;;;0.60;99.90;;;;;;4833120;29;20038;-79
2024/01/28 06:09:19;;;;;;;14.25;12.98;;;0.60;99.90;;;;;;4831822;29;20053;-78
2024/01/28 06:11:46;;;;;;;13.98;12.57;;;0.50;99.90;;;;;;4832932;29;20078;-78
2024/01/28 06:14:11;;;;;;;13.63;12.65;;;0.50;99.90;;;;;;4847026;29;20046;-79
2024/01/28 06:16:37;;;;;;;13.32;12.20;;;0.50;99.90;;;;;;4832568;29;20114;-78
2024/01/28 06:19:04;;;;;;;13.07;11.98;;;0.50;99.90;;;;;;4832568;29;20096;-79
2024/01/28 06:21:29;;;;;;;14.77;13.50;;;0.50;99.90;;;;;;4831816;29;20104;-79
2024/01/28 06:23:55;;;;;;;14.43;13.00;;;0.50;99.90;;;;;;4832452;29;20073;-79
2024/01/28 06:26:21;;;;;;;14.23;12.85;;;0.50;99.90;;;;;;4846994;29;20050;-78
2024/01/28 06:28:47;;;;;;;13.40;12.48;;;0.50;99.90;;;;;;4836064;29;20268;-79
2024/01/28 06:31:14;;;;;;;13.60;12.48;;;0.40;99.90;;;;;;4834696;29;20042;-79
2024/01/28 06:33:41;;;;;;;13.88;12.77;;;0.40;99.90;;;;;;4851011;29;20050;-78
2024/01/28 06:36:07;;;;;;;14.48;13.10;;;0.40;99.90;;;;;;4835673;29;20049;-79
2024/01/28 06:38:33;;;;;;;13.48;12.48;;;0.40;99.90;;;;;;4835126;29;20045;-79
2024/01/28 06:40:59;;;;;;;13.85;12.48;;;0.40;99.90;;;;;;4850966;29;20050;-78
2024/01/28 06:43:27;;;;;;;14.05;12.95;;;0.60;99.90;;;;;;4834428;29;20088;-78
2024/01/28 06:45:53;;;;;;;13.43;12.32;;;0.40;99.90;;;;;;4835524;29;20052;-78
2024/01/28 06:48:19;;;;;;;12.77;11.60;;;0.40;99.90;;;;;;4834859;29;20141;-78
2024/01/28 06:50:46;;;;;;;13.27;12.27;;;0.50;99.90;;;;;;4850999;29;20046;-78
2024/01/28 06:53:12;;;;;;;13.77;12.50;;;0.30;99.90;;;;;;4850404;29;20086;-78
2024/01/28 06:55:38;;;;;;;14.27;13.10;;;0.30;99.90;;;;;;4850195;29;20085;-78
2024/01/28 06:58:04;;;;;;;12.48;11.68;;;0.40;99.90;;;;;;4835275;29;20109;-78
2024/01/28 07:00:30;;;;;;;14.32;12.88;;;0.40;99.90;;;;;;4834486;29;20041;-78
2024/01/28 07:02:56;;;;;;;12.10;11.23;;;0.40;99.90;;;;;;4834801;29;20054;-78
2024/01/28 07:05:22;;;;;;;14.02;12.85;;;0.40;99.90;;;;;;4834617;29;20057;-79
2024/01/28 07:07:48;;;;;;;12.80;11.90;;;0.30;99.90;;;;;;4851722;29;20069;-78
2024/01/28 07:10:13;;;;;;;12.27;11.35;;;0.30;99.90;;;;;;4849188;29;20061;-78
2024/01/28 07:12:39;;;;;;;12.00;11.10;;;0.40;99.90;;;;;;4834237;29;20078;-78
2024/01/28 07:15:05;;;;;;;12.38;11.30;;;0.30;99.90;;;;;;4834931;29;20050;-78
2024/01/28 07:17:32;;;;;;;11.00;10.30;;;0.30;99.90;;;;;;4834546;29;20388;-78
2024/01/28 07:19:58;;;;;;;12.05;11.00;;;0.30;99.90;;;;;;4835295;29;20050;-78
2024/01/28 07:22:24;;;;;;;13.02;11.70;;;0.40;99.90;;;;;;4833848;29;20053;-78
2024/01/28 07:24:50;;;;;;;13.43;11.85;;;0.50;99.90;;;;;;4850306;29;20071;-78
2024/01/28 07:27:15;;;;;;;13.80;12.48;;;0.30;99.90;;;;;;4843312;29;20078;-78
2024/01/28 07:29:41;;;;;;;13.05;11.77;;;0.50;99.90;;;;;;4834905;29;20046;-78
2024/01/28 07:32:07;;;;;;;12.38;11.45;;;0.30;99.90;;;;;;4834798;29;20510;-78
2024/01/28 07:34:32;;;;;;;12.00;11.00;;;0.30;99.90;;;;;;4833861;29;20046;-78
2024/01/28 07:36:58;;;;;;;12.13;11.10;;;0.30;99.90;;;;;;4834772;29;20042;-78
2024/01/28 07:39:26;;;;;;;11.43;10.43;;;0.30;99.90;;;;;;4833195;29;20049;-78
2024/01/28 07:41:52;;;;;;;11.57;10.52;;;0.50;99.90;;;;;;4834615;29;20053;-79
2024/01/28 07:44:18;;;;;;;10.95;9.93;;;0.30;99.90;;;;;;4833907;29;20042;-78
2024/01/28 07:46:44;;;;;;;10.88;10.10;;;0.40;99.90;;;;;;4834508;29;20056;-79
2024/01/28 07:49:09;;;;;;;10.98;10.18;;;0.40;99.90;;;;;;4849540;29;20091;-78
2024/01/28 07:51:36;;;;;;;11.13;10.10;;;0.40;99.90;;;;;;4848837;29;20046;-78
2024/01/28 07:54:02;;;;;;;11.68;9.27;;;0.40;99.90;;;;;;4834629;29;20106;-79
2024/01/28 07:56:27;;;;;;;9.70;8.73;;;0.50;99.90;;;;;;4833525;29;20045;-78
2024/01/28 07:58:53;;;;;;;10.73;9.93;;;0.50;99.90;;;;;;4834606;29;20665;-79
2024/01/28 08:01:19;;;;;;;10.18;9.18;;;0.60;99.90;;;;;;4832928;29;20046;-79
2024/01/28 08:03:45;;;;;;;10.55;9.20;;;0.60;99.90;;;;;;4834244;29;20054;-78
2024/01/28 08:06:10;;;;;;;9.85;8.10;;;0.90;99.90;;;;;;4833014;29;20037;-79
2024/01/28 08:08:36;;;;;;;9.23;8.43;;;1.00;99.90;;;;;;4848369;29;20177;-78
2024/01/28 08:11:02;;;;;;;8.98;8.05;;;0.80;99.90;;;;;;4834256;29;20053;-79
2024/01/28 08:13:28;;;;;;;11.00;7.72;;;0.90;99.90;;;;;;4832769;29;20173;-78
2024/01/28 08:16:01;;;;;;;8.82;8.00;;;1.00;99.90;;;;;;4834483;29;20054;-78
2024/01/28 08:18:27;;;;;;;7.25;6.65;;;1.00;99.90;;;;;;4848698;29;20046;-79
2024/01/28 08:20:53;;;;;;;8.77;7.82;;;1.00;99.90;;;;;;4833602;29;20037;-78
2024/01/28 08:23:18;;;;;;;7.20;6.47;;;1.10;99.90;;;;;;4848545;29;20073;-78
2024/01/28 08:25:46;;;;;;;7.25;6.57;;;1.20;99.90;;;;;;4833104;29;20050;-78
2024/01/28 08:28:11;;;;;;;8.38;6.28;;;1.20;99.90;;;;;;4834262;29;20054;-78
2024/01/28 08:30:37;;;;;;;7.65;7.00;;;1.30;99.90;;;;;;4848039;29;20050;-78
2024/01/28 08:33:03;;;;;;;5.82;5.32;;;1.40;99.90;;;;;;4834164;29;20050;-79
2024/01/28 08:35:31;;;;;;;7.85;6.07;;;1.40;99.90;;;;;;4832658;29;20547;-78
2024/01/28 08:37:57;;;;;;;15.27;6.20;;;1.70;99.90;;;;;;4848791;29;20045;-78
2024/01/28 08:40:24;;;;;;;6.22;4.88;;;1.60;99.90;;;;;;4828411;29;20061;-78
2024/01/28 08:42:50;;;;;;;7.53;4.80;;;1.70;99.90;;;;;;4829055;29;20049;-78
2024/01/28 08:45:16;;;;;;;5.43;4.95;;;1.80;99.90;;;;;;4832461;29;20194;-78
2024/01/28 08:47:42;;;;;;;5.75;4.80;;;1.90;99.90;;;;;;4831195;29;20540;-78
2024/01/28 08:50:09;;;;;;;5.45;4.45;;;2.00;99.90;;;;;;4831965;29;20073;-78
2024/01/28 08:52:35;;;;;;;6.82;5.00;;;2.00;99.90;;;;;;4846701;29;20061;-77
2024/01/28 08:55:01;;;;;;;4.70;3.70;;;2.10;99.90;;;;;;4831225;29;20093;-78
2024/01/28 08:57:26;;;;;;;6.55;4.63;;;2.20;99.90;;;;;;4846860;29;20417;-78
2024/01/28 08:59:52;;;;;;;4.30;3.90;;;2.30;99.90;;;;;;4846733;29;20042;-78
2024/01/28 09:02:18;;;;;;;5.03;4.53;;;2.40;99.90;;;;;;4832417;29;20065;-78
2024/01/28 09:04:44;;;;;;;6.40;4.93;;;2.50;99.90;;;;;;4846157;29;20046;-78
2024/01/28 09:07:10;;;;;;;4.32;3.92;;;2.50;99.90;;;;;;4846427;29;20081;-79
2024/01/28 09:09:35;;;;;;;4.45;3.65;;;2.60;99.90;;;;;;4831004;29;20046;-79
2024/01/28 09:12:02;;;;;;;6.18;3.50;;;2.70;99.90;;;;;;4828863;29;20057;-80
2024/01/28 09:14:28;;;;;;;7.55;3.95;;;2.80;99.90;;;;;;4846067;29;20170;-79
2024/01/28 09:16:54;;;;;;;4.18;3.70;;;2.90;99.90;;;;;;4846512;29;20068;-79
2024/01/28 09:19:20;;;;;;;4.70;3.25;;;3.00;99.90;;;;;;4830757;29;20133;-79
2024/01/28 09:21:46;;;;;;;3.90;3.13;;;3.10;99.90;;;;;;4840726;29;20050;-80
2024/01/28 09:24:12;;;;;;;6.25;4.00;;;3.20;99.90;;;;;;4847608;29;20062;-79
2024/01/28 09:26:37;;;;;;;3.53;3.17;;;3.40;99.90;;;;;;4829629;29;20056;-79
2024/01/28 09:29:03;;;;;;;5.38;3.47;;;3.40;99.90;;;;;;4846131;29;20110;-79
2024/01/28 09:31:29;;;;;;;6.45;3.55;;;4.20;99.90;;;;;;4830471;29;20054;-79
2024/01/28 09:33:55;;;;;;;4.40;3.25;;;3.50;99.90;;;;;;4832202;29;20114;-80
2024/01/28 09:36:20;;;;;;;4.05;3.50;;;3.60;99.90;;;;;;4834397;29;20045;-79
2024/01/28 09:38:46;;;;;;;7.72;3.08;;;3.70;99.90;;;;;;4830333;29;20093;-80
2024/01/28 09:41:40;;;;;;;3.95;2.90;;;3.80;99.90;;;;;;4836285;29;20054;-79
2024/01/28 09:44:06;;;;;;;3.83;3.20;;;3.80;99.90;;;;;;4843318;29;20415;-80
2024/01/28 09:46:31;;;;;;;4.47;3.58;;;4.00;99.90;;;;;;4831182;29;20046;-80
2024/01/28 09:48:59;;;;;;;7.53;3.00;;;4.00;99.90;;;;;;4847033;29;20049;-78
2024/01/28 09:51:24;;;;;;;4.60;3.63;;;4.10;99.90;;;;;;4831434;29;20079;-80
2024/01/28 09:53:50;;;;;;;4.32;3.55;;;4.10;99.90;;;;;;4846798;29;20042;-79
2024/01/28 09:56:17;;;;;;;6.03;3.40;;;4.20;99.90;;;;;;4830108;29;20054;-80
2024/01/28 09:58:43;;;;;;;4.75;3.00;;;4.20;99.90;;;;;;4831695;29;20050;-79
2024/01/28 10:01:13;;;;;;;5.20;2.83;;;4.30;99.90;;;;;;4845375;29;20382;-79
2024/01/28 10:03:39;;;;;;;4.88;2.70;;;4.50;99.90;;;;;;4834721;29;20066;-79
2024/01/28 10:06:05;;;;;;;4.45;2.72;;;4.60;99.90;;;;;;4845353;29;20049;-80
2024/01/28 10:08:31;;;;;;;2.78;2.53;;;4.60;99.90;;;;;;4848921;29;20133;-80
2024/01/28 10:10:58;;;;;;;3.80;2.80;;;4.80;99.90;;;;;;4834450;29;20402;-80
2024/01/28 10:13:26;;;;;;;4.93;3.10;;;5.00;99.90;;;;;;4848712;29;20084;-80
2024/01/28 10:15:57;;;;;;;3.53;2.70;;;5.20;99.90;;;;;;4835659;29;20050;-79
2024/01/28 10:18:26;;;;;;;3.05;2.55;;;5.40;99.90;;;;;;4850007;29;20049;-79
2024/01/28 10:20:52;;;;;;;7.35;2.88;;;5.80;99.90;;;;;;4834990;29;20050;-80
2024/01/28 10:23:18;;;;;;;3.15;2.60;;;6.00;99.90;;;;;;4850278;29;20688;-80
2024/01/28 10:25:44;;;;;;;4.72;2.70;;;6.30;99.90;;;;;;4834729;29;20554;-79
2024/01/28 10:28:10;;;;;;;3.58;2.63;;;6.60;99.90;;;;;;4852580;29;20088;-80
2024/01/28 10:30:36;;;;;;;4.68;2.40;;;6.90;99.90;;;;;;4848553;29;20049;-81
2024/01/28 10:33:02;;;;;;;4.38;2.42;;;7.20;99.90;;;;;;4832517;29;20445;-80
2024/01/28 10:35:28;;;;;;;4.20;2.38;;;7.60;99.90;;;;;;4834726;29;20056;-80
2024/01/28 10:37:55;;;;;;;5.38;2.40;;;8.10;99.90;;;;;;4834918;29;20058;-81
2024/01/28 10:40:27;;;;;;;3.72;2.63;;;8.60;99.90;;;;;;4834864;29;20477;-80
2024/01/28 10:42:56;;;;;;;3.55;2.30;;;9.00;99.90;;;;;;4833418;29;20071;-79
2024/01/28 10:45:23;;;;;;;4.45;2.63;;;9.30;99.90;;;;;;4835453;29;20042;-80
2024/01/28 10:47:56;;;;;;;4.72;2.50;;;9.80;99.90;;;;;;4849484;29;20099;-80
2024/01/28 10:50:28;;;;;;;3.47;2.20;;;10.00;99.90;;;;;;4835893;29;20049;-80
2024/01/28 10:52:56;;;;;;;3.78;2.30;;;10.20;99.90;;;;;;4849972;29;20060;-81
2024/01/28 10:55:22;;;;;;;4.50;2.55;;;10.10;99.90;;;;;;4849787;29;20050;-80
2024/01/28 10:57:48;;;;;;;2.80;2.13;;;10.30;99.90;;;;;;4834894;29;20084;-81
2024/01/28 11:00:20;;;;;;;4.32;2.33;;;10.40;99.90;;;;;;4849660;29;20050;-80
2024/01/28 11:02:47;;;;;;;3.92;2.15;;;10.50;99.90;;;;;;4835039;29;20057;-81
2024/01/28 11:05:13;;;;;;;5.38;2.65;;;10.70;99.90;;;;;;4834395;29;20113;-80
2024/01/28 11:07:39;;;;;;;2.45;2.00;;;10.80;99.90;;;;;;4835095;29;20088;-80
2024/01/28 11:10:05;;;;;;;4.18;2.50;;;11.00;99.90;;;;;;4849748;29;20042;-81
2024/01/28 11:12:32;;;;;;;3.03;2.30;;;11.20;99.90;;;;;;4834324;29;20047;-80
2024/01/28 11:14:59;;;;;;;3.15;2.47;;;11.30;99.90;;;;;;4849112;29;20050;-81
2024/01/28 11:17:35;;;;;;;3.55;2.20;;;11.40;99.90;;;;;;4849562;29;20046;-81
2024/01/28 11:20:08;;;;;;;2.67;1.95;;;11.50;99.90;;;;;;4850517;29;20122;-80
2024/01/28 11:22:51;;;;;;;3.30;2.15;;;11.60;99.90;;;;;;4833882;29;20333;-79
2024/01/28 11:25:22;;;;;;;4.35;2.38;;;11.60;99.90;;;;;;4849677;29;20045;-80
2024/01/28 11:27:49;;;;;;;3.80;2.60;;;11.30;99.90;;;;;;4834751;29;20092;-79
2024/01/28 11:30:20;;;;;;;5.07;2.28;;;10.50;99.90;;;;;;4848821;29;20061;-78
2024/01/28 11:32:46;;;;;;;4.10;2.10;;;9.80;99.90;;;;;;4834996;29;20049;-79
2024/01/28 11:35:12;;;;;;;4.68;2.60;;;9.30;99.90;;;;;;4849136;29;20052;-79
2024/01/28 11:37:54;;;;;;;6.00;2.33;;;9.10;99.90;;;;;;4834715;29;20128;-79
2024/01/28 11:40:23;;;;;;;4.70;2.00;;;8.80;99.90;;;;;;4849587;29;20058;-79
2024/01/28 11:42:53;;;;;;;4.03;2.30;;;8.50;99.90;;;;;;4848707;29;20214;-79
2024/01/28 11:45:21;;;;;;;3.38;2.22;;;8.30;99.90;;;;;;4850081;29;20142;-80
2024/01/28 11:47:46;;;;;;;3.72;2.10;;;8.40;99.90;;;;;;4833387;29;20041;-79
2024/01/28 11:50:12;;;;;;;3.58;2.20;;;8.30;99.90;;;;;;4850415;29;20128;-79
2024/01/28 11:52:38;;;;;;;3.42;2.60;;;8.30;99.90;;;;;;4848997;29;20078;-80
2024/01/28 11:55:14;;;;;;;2.53;2.20;;;8.40;99.90;;;;;;4834209;29;20066;-79
2024/01/28 11:57:42;;;;;;;3.25;2.20;;;8.60;99.90;;;;;;4834163;29;20084;-79
2024/01/28 12:00:10;;;;;;;4.82;2.33;;;8.70;99.90;;;;;;4848867;29;20050;-79
2024/01/28 12:02:37;;;;;;;2.35;1.98;;;8.80;99.90;;;;;;4849349;29;20054;-79
2024/01/28 12:05:04;;;;;;;3.35;2.08;;;9.10;99.90;;;;;;4847258;29;20075;-79
2024/01/28 12:07:35;;;;;;;2.90;2.00;;;9.50;99.90;;;;;;4834141;29;20050;-79
2024/01/28 12:10:12;;;;;;;5.18;2.38;;;9.20;99.90;;;;;;4833580;29;20418;-78
2024/01/28 12:12:42;;;;;;;2.50;1.88;;;8.90;99.90;;;;;;4833333;29;20041;-79
2024/01/28 12:15:11;;;;;;;3.85;2.17;;;8.50;99.90;;;;;;4849499;29;20080;-78
2024/01/28 12:17:39;;;;;;;3.25;1.98;;;8.30;99.90;;;;;;4833196;29;20049;-78
2024/01/28 12:20:06;;;;;;;3.38;2.00;;;8.20;99.90;;;;;;4849634;29;20069;-78
2024/01/28 12:22:37;;;;;;;4.50;2.25;;;8.00;99.90;;;;;;4833231;29;20087;-78
2024/01/28 12:25:13;;;;;;;4.03;2.08;;;7.90;99.90;;;;;;4833079;29;20053;-78
2024/01/28 12:27:40;;;;;;;3.88;2.10;;;7.90;99.90;;;;;;4833554;29;20049;-78
2024/01/28 12:30:07;;;;;;;3.10;1.80;;;8.00;99.90;;;;;;4833094;29;20109;-77
2024/01/28 12:32:33;;;;;;;3.13;2.03;;;8.20;99.90;;;;;;4834198;29;20065;-79
2024/01/28 12:35:03;;;;;;;3.13;2.10;;;8.30;99.90;;;;;;4832819;29;20053;-79
2024/01/28 12:37:34;;;;;;;2.70;2.00;;;8.40;99.90;;;;;;4833922;29;20044;-77
2024/01/28 12:40:00;;;;;;;2.80;2.20;;;8.50;99.90;;;;;;4848344;29;20515;-77